sensor_id;sensor_type;location;lat;lon;timestamp;pressure;altitude;pressure_sealevel;temperature;humidity
42519;BME280;28147;47.520;18.920;2024-02-21T00:04:25;99192.88;;;8.12;77.67
42519;BME280;28147;47.520;18.920;2024-02-21T00:26:48;99163.59;;;7.85;76.09
42519;BME280;28147;47.520;18.920;2024-02-21T00:29:13;99174.03;;;7.93;76.03
42519;BME280;28147;47.520;18.920;2024-02-21T00:45:06;99172.44;;;8.05;73.93
42519;BME280;28147;47.520;18.920;2024-02-21T00:47:45;99172.19;;;7.94;74.53
42519;BME280;28147;47.520;18.920;2024-02-21T00:50:11;99161.00;;;7.92;74.22
42519;BME280;28147;47.520;18.920;2024-02-21T00:54:16;99173.41;;;7.85;74.08
42519;BME280;28147;47.520;18.920;2024-02-21T00:56:42;99156.72;;;7.97;73.70
42519;BME280;28147;47.520;18.920;2024-02-21T00:59:07;99162.38;;;7.88;74.06
42519;BME280;28147;47.520;18.920;2024-02-21T01:04:05;99148.56;;;7.92;74.09
42519;BME280;28147;47.520;18.920;2024-02-21T01:06:31;99150.22;;;8.07;73.19
42519;BME280;28147;47.520;18.920;2024-02-21T01:14:44;99151.13;;;7.79;74.73
42519;BME280;28147;47.520;18.920;2024-02-21T01:19:00;99144.00;;;7.79;74.71
42519;BME280;28147;47.520;18.920;2024-02-21T01:24:19;99137.50;;;7.82;75.27
42519;BME280;28147;47.520;18.920;2024-02-21T01:51:32;99146.22;;;7.41;76.33
42519;BME280;28147;47.520;18.920;2024-02-21T02:24:34;99117.56;;;7.51;74.98
42519;BME280;28147;47.520;18.920;2024-02-21T02:40:21;99134.63;;;7.42;75.82
42519;BME280;28147;47.520;18.920;2024-02-21T02:47:51;99119.44;;;7.23;76.60
42519;BME280;28147;47.520;18.920;2024-02-21T02:53:11;99124.94;;;7.21;76.27
42519;BME280;28147;47.520;18.920;2024-02-21T02:56:56;99132.66;;;7.23;76.58
42519;BME280;28147;47.520;18.920;2024-02-21T03:07:47;99126.22;;;7.32;76.44
42519;BME280;28147;47.520;18.920;2024-02-21T03:10:13;99138.94;;;7.15;76.71
42519;BME280;28147;47.520;18.920;2024-02-21T03:29:27;99129.16;;;7.16;76.69
42519;BME280;28147;47.520;18.920;2024-02-21T03:51:32;99155.91;;;6.99;78.06
42519;BME280;28147;47.520;18.920;2024-02-21T03:55:37;99146.34;;;6.98;77.43
42519;BME280;28147;47.520;18.920;2024-02-21T04:02:29;99153.72;;;7.03;76.44
42519;BME280;28147;47.520;18.920;2024-02-21T04:04:55;99153.63;;;6.90;77.27
42519;BME280;28147;47.520;18.920;2024-02-21T04:15:21;99168.28;;;6.92;77.31
42519;BME280;28147;47.520;18.920;2024-02-21T04:19:05;99158.47;;;6.86;77.40
42519;BME280;28147;47.520;18.920;2024-02-21T04:25:48;99159.97;;;6.74;77.99
42519;BME280;28147;47.520;18.920;2024-02-21T04:28:13;99157.28;;;6.67;78.32
42519;BME280;28147;47.520;18.920;2024-02-21T04:32:26;99148.34;;;6.96;77.07
42519;BME280;28147;47.520;18.920;2024-02-21T04:35:31;99161.94;;;6.87;77.62
42519;BME280;28147;47.520;18.920;2024-02-21T04:37:57;99144.94;;;6.74;77.97
42519;BME280;28147;47.520;18.920;2024-02-21T04:40:22;99156.50;;;6.95;77.32
42519;BME280;28147;47.520;18.920;2024-02-21T04:43:41;99147.44;;;6.82;77.94
42519;BME280;28147;47.520;18.920;2024-02-21T04:49:11;99153.13;;;6.79;78.40
42519;BME280;28147;47.520;18.920;2024-02-21T04:51:36;99151.94;;;6.82;78.09
42519;BME280;28147;47.520;18.920;2024-02-21T04:57:23;99150.47;;;6.79;78.09
42519;BME280;28147;47.520;18.920;2024-02-21T05:07:09;99144.16;;;6.59;79.01
42519;BME280;28147;47.520;18.920;2024-02-21T05:09:36;99133.41;;;6.39;80.21
42519;BME280;28147;47.520;18.920;2024-02-21T05:15:26;99138.56;;;6.47;80.62
42519;BME280;28147;47.520;18.920;2024-02-21T05:25:15;99124.47;;;6.62;79.60
42519;BME280;28147;47.520;18.920;2024-02-21T05:27:41;99121.94;;;6.53;79.69
42519;BME280;28147;47.520;18.920;2024-02-21T05:30:06;99131.13;;;6.57;79.28
42519;BME280;28147;47.520;18.920;2024-02-21T05:32:32;99137.31;;;6.65;78.51
42519;BME280;28147;47.520;18.920;2024-02-21T05:41:25;99121.56;;;6.56;78.17
42519;BME280;28147;47.520;18.920;2024-02-21T05:47:56;99144.97;;;7.02;76.53
42519;BME280;28147;47.520;18.920;2024-02-21T05:50:22;99152.59;;;6.91;76.63
42519;BME280;28147;47.520;18.920;2024-02-21T05:55:34;99145.69;;;6.68;78.00
42519;BME280;28147;47.520;18.920;2024-02-21T05:59:45;99149.28;;;6.61;78.53
42519;BME280;28147;47.520;18.920;2024-02-21T06:04:18;99152.31;;;6.79;77.51
42519;BME280;28147;47.520;18.920;2024-02-21T06:06:44;99154.59;;;6.89;77.39
42519;BME280;28147;47.520;18.920;2024-02-21T06:09:09;99152.09;;;6.80;78.15
42519;BME280;28147;47.520;18.920;2024-02-21T06:11:34;99164.06;;;6.76;77.60
42519;BME280;28147;47.520;18.920;2024-02-21T06:14:02;99166.28;;;6.94;77.08
42519;BME280;28147;47.520;18.920;2024-02-21T06:16:28;99161.56;;;7.18;76.02
42519;BME280;28147;47.520;18.920;2024-02-21T06:18:53;99154.97;;;7.07;76.15
42519;BME280;28147;47.520;18.920;2024-02-21T06:21:18;99167.16;;;7.29;75.47
42519;BME280;28147;47.520;18.920;2024-02-21T06:23:44;99154.56;;;7.38;74.82
42519;BME280;28147;47.520;18.920;2024-02-21T06:26:09;99176.06;;;7.56;74.06
42519;BME280;28147;47.520;18.920;2024-02-21T06:28:34;99157.22;;;7.38;74.33
42519;BME280;28147;47.520;18.920;2024-02-21T06:31:00;99169.09;;;7.49;75.04
42519;BME280;28147;47.520;18.920;2024-02-21T06:33:26;99174.28;;;7.64;74.41
42519;BME280;28147;47.520;18.920;2024-02-21T06:35:51;99167.25;;;7.43;75.59
42519;BME280;28147;47.520;18.920;2024-02-21T06:38:19;99176.63;;;7.45;75.83
42519;BME280;28147;47.520;18.920;2024-02-21T06:40:45;99172.78;;;7.48;75.26
42519;BME280;28147;47.520;18.920;2024-02-21T06:43:15;99183.00;;;7.57;75.06
42519;BME280;28147;47.520;18.920;2024-02-21T06:45:48;99179.28;;;7.45;75.76
42519;BME280;28147;47.520;18.920;2024-02-21T06:49:05;99174.66;;;7.61;75.33
42519;BME280;28147;47.520;18.920;2024-02-21T06:51:30;99168.56;;;7.60;74.57
42519;BME280;28147;47.520;18.920;2024-02-21T06:54:00;99156.38;;;7.66;74.13
42519;BME280;28147;47.520;18.920;2024-02-21T06:56:25;99160.28;;;7.35;75.06
42519;BME280;28147;47.520;18.920;2024-02-21T06:58:54;99173.25;;;7.65;74.41
42519;BME280;28147;47.520;18.920;2024-02-21T07:01:20;99181.91;;;7.73;74.69
42519;BME280;28147;47.520;18.920;2024-02-21T07:03:45;99167.94;;;7.58;74.72
42519;BME280;28147;47.520;18.920;2024-02-21T07:06:10;99177.41;;;7.74;75.25
42519;BME280;28147;47.520;18.920;2024-02-21T07:08:36;99192.22;;;7.96;74.75
42519;BME280;28147;47.520;18.920;2024-02-21T07:11:03;99194.91;;;8.10;74.04
42519;BME280;28147;47.520;18.920;2024-02-21T07:13:28;99194.50;;;8.13;73.92
42519;BME280;28147;47.520;18.920;2024-02-21T07:15:53;99199.47;;;7.81;75.48
42519;BME280;28147;47.520;18.920;2024-02-21T07:18:20;99192.63;;;8.07;74.33
42519;BME280;28147;47.520;18.920;2024-02-21T07:20:45;99193.41;;;7.94;74.89
42519;BME280;28147;47.520;18.920;2024-02-21T07:23:11;99165.06;;;7.94;74.63
42519;BME280;28147;47.520;18.920;2024-02-21T07:25:36;99182.69;;;8.15;74.26
42519;BME280;28147;47.520;18.920;2024-02-21T07:28:02;99192.81;;;8.46;73.10
42519;BME280;28147;47.520;18.920;2024-02-21T07:30:28;99188.78;;;8.57;73.12
42519;BME280;28147;47.520;18.920;2024-02-21T07:32:53;99180.00;;;8.57;72.20
42519;BME280;28147;47.520;18.920;2024-02-21T07:35:18;99185.13;;;8.78;72.28
42519;BME280;28147;47.520;18.920;2024-02-21T07:37:44;99179.03;;;9.04;71.06
42519;BME280;28147;47.520;18.920;2024-02-21T07:40:13;99180.81;;;9.50;69.43
42519;BME280;28147;47.520;18.920;2024-02-21T07:42:39;99186.31;;;9.75;68.05
42519;BME280;28147;47.520;18.920;2024-02-21T07:45:06;99189.56;;;9.77;66.75
42519;BME280;28147;47.520;18.920;2024-02-21T07:47:31;99177.34;;;9.49;66.42
42519;BME280;28147;47.520;18.920;2024-02-21T07:49:57;99185.03;;;9.91;65.81
42519;BME280;28147;47.520;18.920;2024-02-21T07:52:22;99193.00;;;9.91;65.90
42519;BME280;28147;47.520;18.920;2024-02-21T07:54:47;99192.00;;;9.85;66.29
42519;BME280;28147;47.520;18.920;2024-02-21T07:57:13;99194.50;;;9.67;66.63
42519;BME280;28147;47.520;18.920;2024-02-21T08:00:28;99179.22;;;9.36;67.65
42519;BME280;28147;47.520;18.920;2024-02-21T08:02:53;99182.28;;;9.19;67.58
42519;BME280;28147;47.520;18.920;2024-02-21T08:05:19;99180.44;;;9.40;67.42
42519;BME280;28147;47.520;18.920;2024-02-21T08:07:48;99186.16;;;9.23;68.16
42519;BME280;28147;47.520;18.920;2024-02-21T08:10:15;99179.44;;;9.08;68.57
42519;BME280;28147;47.520;18.920;2024-02-21T08:12:40;99194.13;;;9.37;67.88
42519;BME280;28147;47.520;18.920;2024-02-21T08:15:06;99187.19;;;9.22;67.86
42519;BME280;28147;47.520;18.920;2024-02-21T08:17:36;99189.03;;;9.15;68.32
42519;BME280;28147;47.520;18.920;2024-02-21T08:20:01;99185.66;;;9.80;65.93
42519;BME280;28147;47.520;18.920;2024-02-21T08:22:27;99186.38;;;10.27;64.32
42519;BME280;28147;47.520;18.920;2024-02-21T08:24:53;99196.41;;;10.11;64.01
42519;BME280;28147;47.520;18.920;2024-02-21T08:27:18;99201.63;;;9.86;65.03
42519;BME280;28147;47.520;18.920;2024-02-21T08:29:44;99198.50;;;9.96;65.05
42519;BME280;28147;47.520;18.920;2024-02-21T08:32:09;99207.31;;;9.96;65.97
42519;BME280;28147;47.520;18.920;2024-02-21T08:34:34;99203.13;;;10.72;63.43
42519;BME280;28147;47.520;18.920;2024-02-21T08:37:00;99192.09;;;10.62;63.67
42519;BME280;28147;47.520;18.920;2024-02-21T08:39:25;99201.47;;;10.71;63.98
42519;BME280;28147;47.520;18.920;2024-02-21T08:41:51;99207.50;;;10.91;62.96
42519;BME280;28147;47.520;18.920;2024-02-21T08:44:16;99206.50;;;10.54;64.02
42519;BME280;28147;47.520;18.920;2024-02-21T08:46:41;99198.22;;;10.69;63.47
42519;BME280;28147;47.520;18.920;2024-02-21T08:49:09;99206.47;;;10.61;64.59
42519;BME280;28147;47.520;18.920;2024-02-21T08:51:35;99198.38;;;10.74;63.86
42519;BME280;28147;47.520;18.920;2024-02-21T08:54:00;99200.34;;;10.54;62.78
42519;BME280;28147;47.520;18.920;2024-02-21T08:56:26;99197.22;;;10.63;63.50
42519;BME280;28147;47.520;18.920;2024-02-21T08:58:51;99206.09;;;10.82;62.92
42519;BME280;28147;47.520;18.920;2024-02-21T09:01:16;99203.13;;;10.72;63.20
42519;BME280;28147;47.520;18.920;2024-02-21T09:03:42;99189.63;;;10.99;61.75
42519;BME280;28147;47.520;18.920;2024-02-21T09:06:09;99194.44;;;11.77;60.72
42519;BME280;28147;47.520;18.920;2024-02-21T09:08:35;99195.91;;;11.98;58.05
42519;BME280;28147;47.520;18.920;2024-02-21T09:11:01;99197.75;;;12.46;57.07
42519;BME280;28147;47.520;18.920;2024-02-21T09:13:26;99201.78;;;12.36;57.14
42519;BME280;28147;47.520;18.920;2024-02-21T09:15:52;99200.19;;;11.99;57.63
42519;BME280;28147;47.520;18.920;2024-02-21T09:18:17;99207.44;;;11.91;58.68
42519;BME280;28147;47.520;18.920;2024-02-21T09:20:43;99182.13;;;11.57;58.34
42519;BME280;28147;47.520;18.920;2024-02-21T09:23:08;99201.38;;;11.41;59.49
42519;BME280;28147;47.520;18.920;2024-02-21T09:25:34;99179.56;;;11.26;59.35
42519;BME280;28147;47.520;18.920;2024-02-21T09:28:01;99184.19;;;11.99;59.28
42519;BME280;28147;47.520;18.920;2024-02-21T09:30:26;99186.53;;;11.88;59.62
42519;BME280;28147;47.520;18.920;2024-02-21T09:32:52;99198.91;;;11.39;59.32
42519;BME280;28147;47.520;18.920;2024-02-21T09:35:18;99195.38;;;11.20;59.58
42519;BME280;28147;47.520;18.920;2024-02-21T09:37:43;99184.75;;;10.89;59.76
42519;BME280;28147;47.520;18.920;2024-02-21T09:40:15;99190.03;;;10.64;60.09
42519;BME280;28147;47.520;18.920;2024-02-21T09:42:41;99190.00;;;10.70;60.63
42519;BME280;28147;47.520;18.920;2024-02-21T09:45:17;99191.97;;;10.82;60.34
42519;BME280;28147;47.520;18.920;2024-02-21T09:47:52;99195.31;;;11.02;60.29
42519;BME280;28147;47.520;18.920;2024-02-21T09:50:21;99192.00;;;11.32;58.80
42519;BME280;28147;47.520;18.920;2024-02-21T09:52:48;99182.41;;;11.49;59.12
42519;BME280;28147;47.520;18.920;2024-02-21T09:55:14;99192.84;;;11.51;58.52
42519;BME280;28147;47.520;18.920;2024-02-21T09:57:40;99189.56;;;11.30;59.70
42519;BME280;28147;47.520;18.920;2024-02-21T10:00:06;99183.75;;;10.83;58.63
42519;BME280;28147;47.520;18.920;2024-02-21T10:02:35;99190.25;;;10.94;58.76
42519;BME280;28147;47.520;18.920;2024-02-21T10:05:02;99190.34;;;11.06;58.49
42519;BME280;28147;47.520;18.920;2024-02-21T10:07:29;99186.41;;;11.15;58.51
42519;BME280;28147;47.520;18.920;2024-02-21T10:10:04;99184.41;;;11.54;58.03
42519;BME280;28147;47.520;18.920;2024-02-21T10:12:30;99191.03;;;11.26;59.97
42519;BME280;28147;47.520;18.920;2024-02-21T10:15:05;99180.03;;;11.16;58.63
42519;BME280;28147;47.520;18.920;2024-02-21T10:17:34;99189.22;;;11.20;58.86
42519;BME280;28147;47.520;18.920;2024-02-21T10:20:10;99188.66;;;11.36;58.93
42519;BME280;28147;47.520;18.920;2024-02-21T10:22:35;99170.94;;;11.49;58.37
42519;BME280;28147;47.520;18.920;2024-02-21T10:27:33;99174.44;;;11.67;57.47
42519;BME280;28147;47.520;18.920;2024-02-21T10:29:58;99164.16;;;11.71;57.76
42519;BME280;28147;47.520;18.920;2024-02-21T10:32:24;99159.06;;;11.63;57.61
42519;BME280;28147;47.520;18.920;2024-02-21T10:35:02;99162.19;;;12.33;56.15
42519;BME280;28147;47.520;18.920;2024-02-21T10:37:29;99156.78;;;12.94;56.14
42519;BME280;28147;47.520;18.920;2024-02-21T10:39:55;99156.88;;;11.97;55.39
42519;BME280;28147;47.520;18.920;2024-02-21T10:42:21;99153.28;;;11.48;56.57
42519;BME280;28147;47.520;18.920;2024-02-21T10:44:50;99152.56;;;10.90;57.71
42519;BME280;28147;47.520;18.920;2024-02-21T10:47:19;99141.63;;;11.24;58.50
42519;BME280;28147;47.520;18.920;2024-02-21T10:49:50;99140.34;;;11.33;58.99
42519;BME280;28147;47.520;18.920;2024-02-21T10:52:41;99134.50;;;10.99;59.06
42519;BME280;28147;47.520;18.920;2024-02-21T10:55:19;99130.78;;;11.00;59.59
42519;BME280;28147;47.520;18.920;2024-02-21T10:57:46;99134.63;;;11.04;59.04
42519;BME280;28147;47.520;18.920;2024-02-21T11:00:14;99121.69;;;11.33;58.78
42519;BME280;28147;47.520;18.920;2024-02-21T11:02:43;99116.72;;;11.55;57.74
42519;BME280;28147;47.520;18.920;2024-02-21T11:05:08;99112.47;;;11.29;57.99
42519;BME280;28147;47.520;18.920;2024-02-21T11:07:36;99111.66;;;11.47;57.95
42519;BME280;28147;47.520;18.920;2024-02-21T11:10:02;99113.31;;;11.29;58.04
42519;BME280;28147;47.520;18.920;2024-02-21T11:12:32;99106.41;;;10.96;58.50
42519;BME280;28147;47.520;18.920;2024-02-21T11:15:05;99102.41;;;10.87;57.93
42519;BME280;28147;47.520;18.920;2024-02-21T11:17:31;99090.34;;;10.85;57.69
42519;BME280;28147;47.520;18.920;2024-02-21T11:19:56;99089.91;;;10.88;58.65
42519;BME280;28147;47.520;18.920;2024-02-21T11:22:21;99095.06;;;10.83;58.62
42519;BME280;28147;47.520;18.920;2024-02-21T11:24:49;99091.97;;;10.86;59.18
42519;BME280;28147;47.520;18.920;2024-02-21T11:27:16;99086.69;;;10.79;58.97
42519;BME280;28147;47.520;18.920;2024-02-21T11:29:46;99081.75;;;10.83;59.00
42519;BME280;28147;47.520;18.920;2024-02-21T11:32:16;99087.69;;;10.85;58.99
42519;BME280;28147;47.520;18.920;2024-02-21T11:34:59;99081.69;;;10.89;58.54
42519;BME280;28147;47.520;18.920;2024-02-21T11:37:27;99083.59;;;10.82;58.49
42519;BME280;28147;47.520;18.920;2024-02-21T11:39:54;99077.66;;;11.24;58.80
42519;BME280;28147;47.520;18.920;2024-02-21T11:42:20;99075.06;;;12.09;57.27
42519;BME280;28147;47.520;18.920;2024-02-21T11:44:45;99064.63;;;12.73;54.19
42519;BME280;28147;47.520;18.920;2024-02-21T11:47:11;99066.19;;;13.27;53.63
42519;BME280;28147;47.520;18.920;2024-02-21T11:49:38;99056.16;;;13.34;50.60
42519;BME280;28147;47.520;18.920;2024-02-21T11:52:05;99053.47;;;13.23;50.76
42519;BME280;28147;47.520;18.920;2024-02-21T11:54:31;99047.91;;;13.01;50.84
42519;BME280;28147;47.520;18.920;2024-02-21T11:56:56;99053.13;;;13.19;50.97
42519;BME280;28147;47.520;18.920;2024-02-21T11:59:22;99052.88;;;12.50;51.65
42519;BME280;28147;47.520;18.920;2024-02-21T12:01:48;99043.47;;;12.48;52.42
42519;BME280;28147;47.520;18.920;2024-02-21T12:04:15;99047.53;;;12.50;52.25
42519;BME280;28147;47.520;18.920;2024-02-21T12:06:43;99034.91;;;12.69;52.50
42519;BME280;28147;47.520;18.920;2024-02-21T12:09:09;99041.06;;;12.81;51.99
42519;BME280;28147;47.520;18.920;2024-02-21T12:11:34;99033.34;;;12.50;51.56
42519;BME280;28147;47.520;18.920;2024-02-21T12:14:01;99039.38;;;12.33;51.62
42519;BME280;28147;47.520;18.920;2024-02-21T12:16:29;99044.41;;;12.11;52.36
42519;BME280;28147;47.520;18.920;2024-02-21T12:18:55;99039.16;;;11.75;52.88
42519;BME280;28147;47.520;18.920;2024-02-21T12:21:30;99030.19;;;11.69;53.59
42519;BME280;28147;47.520;18.920;2024-02-21T12:23:55;99023.31;;;11.43;54.26
42519;BME280;28147;47.520;18.920;2024-02-21T12:26:22;99023.00;;;11.51;54.11
42519;BME280;28147;47.520;18.920;2024-02-21T12:28:47;99025.09;;;11.49;54.41
42519;BME280;28147;47.520;18.920;2024-02-21T12:31:13;99018.59;;;11.45;53.91
42519;BME280;28147;47.520;18.920;2024-02-21T12:33:39;99023.19;;;11.19;54.33
42519;BME280;28147;47.520;18.920;2024-02-21T12:36:04;99028.00;;;11.29;54.72
42519;BME280;28147;47.520;18.920;2024-02-21T12:38:30;99026.06;;;11.55;54.72
42519;BME280;28147;47.520;18.920;2024-02-21T12:40:55;99016.19;;;11.55;54.02
42519;BME280;28147;47.520;18.920;2024-02-21T12:43:22;99012.06;;;12.20;52.81
42519;BME280;28147;47.520;18.920;2024-02-21T12:45:48;99012.19;;;12.13;54.41
42519;BME280;28147;47.520;18.920;2024-02-21T12:48:14;99013.97;;;12.01;54.11
42519;BME280;28147;47.520;18.920;2024-02-21T12:50:40;99009.88;;;11.86;55.04
42519;BME280;28147;47.520;18.920;2024-02-21T12:53:06;99010.25;;;11.72;54.52
42519;BME280;28147;47.520;18.920;2024-02-21T12:55:32;99005.19;;;11.82;54.36
42519;BME280;28147;47.520;18.920;2024-02-21T12:58:03;99004.63;;;11.61;54.41
42519;BME280;28147;47.520;18.920;2024-02-21T13:00:29;98999.03;;;11.51;54.69
42519;BME280;28147;47.520;18.920;2024-02-21T13:02:56;98991.38;;;11.55;54.51
42519;BME280;28147;47.520;18.920;2024-02-21T13:05:22;98982.41;;;11.37;54.33
42519;BME280;28147;47.520;18.920;2024-02-21T13:07:48;98981.78;;;11.54;54.58
42519;BME280;28147;47.520;18.920;2024-02-21T13:10:13;98971.38;;;11.64;53.91
42519;BME280;28147;47.520;18.920;2024-02-21T13:12:39;98976.69;;;11.52;53.59
42519;BME280;28147;47.520;18.920;2024-02-21T13:15:05;98973.59;;;11.67;52.74
42519;BME280;28147;47.520;18.920;2024-02-21T13:17:30;98970.22;;;11.60;52.50
42519;BME280;28147;47.520;18.920;2024-02-21T13:19:57;98965.81;;;11.17;52.10
42519;BME280;28147;47.520;18.920;2024-02-21T13:22:22;98969.81;;;11.26;52.79
42519;BME280;28147;47.520;18.920;2024-02-21T13:24:51;98960.09;;;11.32;53.30
42519;BME280;28147;47.520;18.920;2024-02-21T13:27:16;98968.41;;;11.72;53.15
42519;BME280;28147;47.520;18.920;2024-02-21T13:29:41;98969.16;;;11.61;52.82
42519;BME280;28147;47.520;18.920;2024-02-21T13:32:06;98958.03;;;11.34;52.58
42519;BME280;28147;47.520;18.920;2024-02-21T13:34:32;98958.47;;;11.49;52.91
42519;BME280;28147;47.520;18.920;2024-02-21T13:36:57;98952.16;;;11.43;52.59
42519;BME280;28147;47.520;18.920;2024-02-21T13:39:24;98949.97;;;11.40;52.78
42519;BME280;28147;47.520;18.920;2024-02-21T13:41:50;98957.69;;;11.60;52.89
42519;BME280;28147;47.520;18.920;2024-02-21T13:44:15;98948.47;;;11.44;53.07
42519;BME280;28147;47.520;18.920;2024-02-21T13:46:40;98947.03;;;11.60;53.14
42519;BME280;28147;47.520;18.920;2024-02-21T13:49:06;98938.38;;;11.47;53.13
42519;BME280;28147;47.520;18.920;2024-02-21T13:51:33;98944.63;;;11.71;53.01
42519;BME280;28147;47.520;18.920;2024-02-21T13:53:58;98929.16;;;11.61;52.31
42519;BME280;28147;47.520;18.920;2024-02-21T13:56:24;98933.00;;;11.65;52.19
42519;BME280;28147;47.520;18.920;2024-02-21T13:58:50;98933.72;;;11.72;52.47
42519;BME280;28147;47.520;18.920;2024-02-21T14:01:15;98917.59;;;11.67;52.15
42519;BME280;28147;47.520;18.920;2024-02-21T14:03:41;98929.50;;;11.53;51.56
42519;BME280;28147;47.520;18.920;2024-02-21T14:06:06;98918.09;;;11.45;51.48
42519;BME280;28147;47.520;18.920;2024-02-21T14:08:31;98930.63;;;11.45;50.91
42519;BME280;28147;47.520;18.920;2024-02-21T14:10:59;98927.19;;;11.56;51.24
42519;BME280;28147;47.520;18.920;2024-02-21T14:13:25;98923.03;;;11.60;50.99
42519;BME280;28147;47.520;18.920;2024-02-21T14:15:51;98920.84;;;11.69;51.25
42519;BME280;28147;47.520;18.920;2024-02-21T14:18:16;98926.19;;;11.69;51.01
42519;BME280;28147;47.520;18.920;2024-02-21T14:20:42;98920.44;;;11.54;51.26
42519;BME280;28147;47.520;18.920;2024-02-21T14:23:07;98922.91;;;11.25;50.75
42519;BME280;28147;47.520;18.920;2024-02-21T14:25:33;98924.19;;;11.34;51.63
42519;BME280;28147;47.520;18.920;2024-02-21T14:27:58;98931.19;;;11.47;51.33
42519;BME280;28147;47.520;18.920;2024-02-21T14:30:25;98931.88;;;11.42;51.79
42519;BME280;28147;47.520;18.920;2024-02-21T14:32:51;98903.19;;;11.26;51.86
42519;BME280;28147;47.520;18.920;2024-02-21T14:35:17;98922.56;;;11.33;51.84
42519;BME280;28147;47.520;18.920;2024-02-21T14:37:42;98920.03;;;11.38;51.43
42519;BME280;28147;47.520;18.920;2024-02-21T14:40:08;98931.44;;;11.45;51.03
42519;BME280;28147;47.520;18.920;2024-02-21T14:42:33;98917.25;;;11.33;51.19
42519;BME280;28147;47.520;18.920;2024-02-21T14:44:59;98914.84;;;11.43;51.92
42519;BME280;28147;47.520;18.920;2024-02-21T14:47:30;98901.88;;;11.47;51.66
42519;BME280;28147;47.520;18.920;2024-02-21T14:49:55;98911.72;;;11.47;51.71
42519;BME280;28147;47.520;18.920;2024-02-21T14:52:21;98907.88;;;11.42;51.58
42519;BME280;28147;47.520;18.920;2024-02-21T14:54:46;98896.66;;;11.40;52.12
42519;BME280;28147;47.520;18.920;2024-02-21T14:57:14;98899.91;;;11.54;51.48
42519;BME280;28147;47.520;18.920;2024-02-21T14:59:40;98892.53;;;11.56;51.31
42519;BME280;28147;47.520;18.920;2024-02-21T15:02:05;98892.63;;;11.50;51.49
42519;BME280;28147;47.520;18.920;2024-02-21T15:04:32;98898.56;;;11.63;51.33
42519;BME280;28147;47.520;18.920;2024-02-21T15:06:58;98893.28;;;11.75;51.04
42519;BME280;28147;47.520;18.920;2024-02-21T15:09:23;98893.84;;;11.77;50.81
42519;BME280;28147;47.520;18.920;2024-02-21T15:11:48;98894.25;;;11.62;51.18
42519;BME280;28147;47.520;18.920;2024-02-21T15:14:14;98897.97;;;11.61;51.51
42519;BME280;28147;47.520;18.920;2024-02-21T15:16:39;98885.91;;;11.59;50.58
42519;BME280;28147;47.520;18.920;2024-02-21T15:19:05;98891.13;;;11.54;50.40
42519;BME280;28147;47.520;18.920;2024-02-21T15:21:30;98882.53;;;11.52;50.20
42519;BME280;28147;47.520;18.920;2024-02-21T15:23:55;98886.22;;;11.51;50.03
42519;BME280;28147;47.520;18.920;2024-02-21T15:26:22;98875.00;;;11.18;50.21
42519;BME280;28147;47.520;18.920;2024-02-21T15:28:48;98878.28;;;11.32;50.20
42519;BME280;28147;47.520;18.920;2024-02-21T15:31:22;98883.41;;;11.34;49.96
42519;BME280;28147;47.520;18.920;2024-02-21T15:33:52;98887.97;;;11.45;50.69
42519;BME280;28147;47.520;18.920;2024-02-21T15:36:17;98881.81;;;11.44;50.74
42519;BME280;28147;47.520;18.920;2024-02-21T15:38:43;98886.28;;;11.32;50.10
42519;BME280;28147;47.520;18.920;2024-02-21T15:41:11;98882.06;;;11.25;50.32
42519;BME280;28147;47.520;18.920;2024-02-21T15:43:37;98881.06;;;11.26;51.88
42519;BME280;28147;47.520;18.920;2024-02-21T15:46:03;98883.63;;;11.32;52.18
42519;BME280;28147;47.520;18.920;2024-02-21T15:48:28;98883.72;;;11.26;51.70
42519;BME280;28147;47.520;18.920;2024-02-21T15:50:54;98887.38;;;11.13;51.04
42519;BME280;28147;47.520;18.920;2024-02-21T15:53:19;98888.84;;;11.09;51.42
42519;BME280;28147;47.520;18.920;2024-02-21T15:55:45;98878.06;;;11.04;53.22
42519;BME280;28147;47.520;18.920;2024-02-21T16:01:45;98882.91;;;10.95;52.59
42519;BME280;28147;47.520;18.920;2024-02-21T16:04:10;98874.38;;;10.86;51.87
42519;BME280;28147;47.520;18.920;2024-02-21T16:06:36;98884.28;;;10.98;51.68
42519;BME280;28147;47.520;18.920;2024-02-21T16:09:01;98879.25;;;10.89;53.62
42519;BME280;28147;47.520;18.920;2024-02-21T16:11:30;98868.69;;;10.83;53.29
42519;BME280;28147;47.520;18.920;2024-02-21T16:15:09;98869.41;;;10.90;54.31
42519;BME280;28147;47.520;18.920;2024-02-21T16:17:36;98879.19;;;10.96;54.56
42519;BME280;28147;47.520;18.920;2024-02-21T16:20:01;98878.28;;;11.02;55.43
42519;BME280;28147;47.520;18.920;2024-02-21T16:22:28;98875.34;;;10.92;55.45
42519;BME280;28147;47.520;18.920;2024-02-21T16:24:54;98883.09;;;10.75;56.27
42519;BME280;28147;47.520;18.920;2024-02-21T16:27:20;98873.56;;;10.86;56.56
42519;BME280;28147;47.520;18.920;2024-02-21T16:29:45;98874.47;;;10.80;55.93
42519;BME280;28147;47.520;18.920;2024-02-21T16:32:10;98884.28;;;10.79;56.09
42519;BME280;28147;47.520;18.920;2024-02-21T16:34:36;98879.56;;;10.81;55.42
42519;BME280;28147;47.520;18.920;2024-02-21T16:37:01;98884.59;;;10.71;55.04
42519;BME280;28147;47.520;18.920;2024-02-21T16:39:27;98880.53;;;10.50;55.34
42519;BME280;28147;47.520;18.920;2024-02-21T16:41:52;98879.69;;;10.31;58.16
42519;BME280;28147;47.520;18.920;2024-02-21T16:44:21;98882.59;;;10.48;58.43
42519;BME280;28147;47.520;18.920;2024-02-21T16:46:46;98880.88;;;10.35;57.98
42519;BME280;28147;47.520;18.920;2024-02-21T16:49:11;98886.69;;;10.26;57.93
42519;BME280;28147;47.520;18.920;2024-02-21T16:51:38;98882.81;;;10.21;57.80
42519;BME280;28147;47.520;18.920;2024-02-21T16:54:03;98883.44;;;10.23;58.12
42519;BME280;28147;47.520;18.920;2024-02-21T16:56:33;98886.84;;;10.06;58.72